createdAt,value
2022-10-16T00:00:45.004Z,4.93
2022-10-16T00:03:14.580Z,4.35
2022-10-16T00:05:44.524Z,4.65
2022-10-16T00:08:14.660Z,9.32
2022-10-16T00:10:44.111Z,4.57
2022-10-16T00:13:13.585Z,4.70
2022-10-16T00:15:45.658Z,3.72
2022-10-16T00:18:15.481Z,3.70
2022-10-16T00:20:45.008Z,3.90
2022-10-16T00:23:14.519Z,3.95
2022-10-16T00:25:44.001Z,4.20
2022-10-16T00:28:13.452Z,3.58
2022-10-16T00:30:45.523Z,3.47
2022-10-16T00:33:14.991Z,4.53
2022-10-16T00:35:44.539Z,3.75
2022-10-16T00:38:14.028Z,3.15
2022-10-16T00:40:43.573Z,8.75
2022-10-16T00:43:16.906Z,5.40
2022-10-16T00:45:48.965Z,4.68
2022-10-16T00:48:18.439Z,5.07
2022-10-16T00:50:47.902Z,5.03
2022-10-16T00:53:17.377Z,4.18
2022-10-16T00:55:47.070Z,4.65
2022-10-16T00:58:16.511Z,5.68
2022-10-16T01:00:46.066Z,4.05
2022-10-16T01:03:30.322Z,3.88
2022-10-16T01:06:15.616Z,5.38
2022-10-16T01:08:49.608Z,3.08
2022-10-16T01:11:21.558Z,4.38
2022-10-16T01:13:52.612Z,3.47
2022-10-16T01:18:57.674Z,4.22
2022-10-16T01:21:29.215Z,6.03
2022-10-16T01:24:03.068Z,4.03
2022-10-16T01:26:41.414Z,4.05
2022-10-16T01:29:16.788Z,4.63
2022-10-16T01:31:47.966Z,4.93
2022-10-16T01:34:18.810Z,3.90
2022-10-16T01:36:51.155Z,5.63
2022-10-16T01:39:20.596Z,6.88
2022-10-16T01:41:51.565Z,5.28
2022-10-16T01:44:24.356Z,6.00
2022-10-16T01:46:54.770Z,4.78
2022-10-16T01:49:24.277Z,6.30
2022-10-16T01:51:55.856Z,5.78
2022-10-16T01:54:25.372Z,6.18
2022-10-16T01:56:54.877Z,6.72
2022-10-16T01:59:28.295Z,5.18
2022-10-16T02:01:59.628Z,8.13
2022-10-16T02:04:31.961Z,4.05
2022-10-16T02:07:01.462Z,7.53
2022-10-16T02:09:30.927Z,5.47
2022-10-16T02:12:00.506Z,6.15
2022-10-16T02:14:32.992Z,6.45
2022-10-16T02:17:02.554Z,5.30
2022-10-16T02:19:32.037Z,6.03
2022-10-16T02:22:03.484Z,7.75
2022-10-16T02:24:36.501Z,8.55
2022-10-16T02:27:09.235Z,6.43
2022-10-16T02:29:45.448Z,6.38
2022-10-16T02:32:14.946Z,5.95
2022-10-16T02:34:44.871Z,6.20
2022-10-16T02:37:14.317Z,6.63
2022-10-16T02:39:43.875Z,5.97
2022-10-16T02:42:14.033Z,7.43
2022-10-16T02:44:46.102Z,9.67
2022-10-16T02:47:15.739Z,4.35
2022-10-16T02:49:45.204Z,5.43
2022-10-16T02:52:14.679Z,6.45
2022-10-16T02:54:44.184Z,5.90
2022-10-16T02:57:13.644Z,7.20
2022-10-16T02:59:45.692Z,7.10
2022-10-16T03:02:15.187Z,5.90
2022-10-16T03:04:44.635Z,4.53
2022-10-16T03:07:14.090Z,6.68
2022-10-16T03:09:43.864Z,7.15
2022-10-16T03:12:13.324Z,5.35
2022-10-16T03:14:43.540Z,5.55
2022-10-16T03:17:22.278Z,6.33
2022-10-16T03:19:51.853Z,8.23
2022-10-16T03:22:21.326Z,5.70
2022-10-16T03:24:50.766Z,6.03
2022-10-16T03:27:20.199Z,6.50
2022-10-16T03:29:49.645Z,7.20
2022-10-16T03:32:22.676Z,7.15
2022-10-16T03:34:52.144Z,7.57
2022-10-16T03:37:21.588Z,8.52
2022-10-16T03:39:51.061Z,6.63
2022-10-16T03:42:20.515Z,13.73
2022-10-16T03:44:49.985Z,7.50
2022-10-16T03:47:24.684Z,8.20
2022-10-16T03:49:54.497Z,6.35
2022-10-16T03:52:23.986Z,5.97
2022-10-16T03:54:53.442Z,5.38
2022-10-16T03:57:23.173Z,6.10
2022-10-16T03:59:59.159Z,5.15
2022-10-16T04:02:31.179Z,5.30
2022-10-16T04:05:01.686Z,5.72
2022-10-16T04:07:31.123Z,5.68
2022-10-16T04:10:00.819Z,5.38
2022-10-16T04:12:30.323Z,7.55
2022-10-16T04:14:59.916Z,6.85
2022-10-16T04:17:31.981Z,5.97
2022-10-16T04:20:01.702Z,5.22
2022-10-16T04:22:31.144Z,5.85
2022-10-16T04:25:00.621Z,8.07
2022-10-16T04:27:32.218Z,5.68
2022-10-16T04:30:01.723Z,6.35
2022-10-16T04:32:33.774Z,6.65
2022-10-16T04:35:03.899Z,6.68
2022-10-16T04:37:33.386Z,7.13
2022-10-16T04:40:03.267Z,6.07
2022-10-16T04:42:32.732Z,5.45
2022-10-16T04:45:02.231Z,4.95
2022-10-16T04:47:34.262Z,4.80
2022-10-16T04:50:03.812Z,5.93
2022-10-16T04:55:22.777Z,4.47
2022-10-16T04:57:52.221Z,3.40
2022-10-16T05:00:23.239Z,4.25
2022-10-16T05:05:25.485Z,8.27
2022-10-16T05:07:54.966Z,6.05
2022-10-16T05:10:24.448Z,6.97
2022-10-16T05:12:54.030Z,5.88
2022-10-16T05:15:25.922Z,6.72
2022-10-16T05:17:59.139Z,6.45
2022-10-16T05:20:28.633Z,4.50
2022-10-16T05:23:03.494Z,5.03
2022-10-16T05:25:43.147Z,4.03
2022-10-16T05:28:13.274Z,8.05
2022-10-16T05:30:43.203Z,9.03
2022-10-16T05:33:15.631Z,9.05
2022-10-16T05:35:52.672Z,9.43
2022-10-16T05:38:25.222Z,10.10
2022-10-16T05:40:55.267Z,7.63
2022-10-16T05:43:24.708Z,10.65
2022-10-16T05:46:02.923Z,13.93
2022-10-16T05:48:35.006Z,19.83
2022-10-16T05:51:08.985Z,10.80
2022-10-16T05:53:39.686Z,8.75
2022-10-16T05:56:10.290Z,7.78
2022-10-16T05:58:43.376Z,7.60
2022-10-16T06:01:14.119Z,6.97
2022-10-16T06:03:47.473Z,8.20
2022-10-16T06:06:17.876Z,8.15
2022-10-16T06:08:48.525Z,9.00
2022-10-16T06:11:18.879Z,10.18
2022-10-16T06:13:54.591Z,7.50
2022-10-16T06:16:24.148Z,7.30
2022-10-16T06:18:57.251Z,7.38
2022-10-16T06:21:30.053Z,5.82
2022-10-16T06:23:59.848Z,5.53
2022-10-16T06:26:30.268Z,7.60
2022-10-16T06:29:00.393Z,5.60
2022-10-16T06:31:32.113Z,8.93
2022-10-16T06:34:05.785Z,7.25
2022-10-16T06:36:35.239Z,7.13
2022-10-16T06:39:04.727Z,6.72
2022-10-16T06:41:34.224Z,6.60
2022-10-16T06:44:03.672Z,7.63
2022-10-16T06:46:33.143Z,6.70
2022-10-16T06:49:05.231Z,5.15
2022-10-16T06:51:39.124Z,6.43
2022-10-16T06:54:11.791Z,5.90
2022-10-16T06:56:41.304Z,8.27
2022-10-16T06:59:10.752Z,8.60
2022-10-16T07:01:40.222Z,8.88
2022-10-16T07:04:12.250Z,8.07
2022-10-16T07:06:41.796Z,9.18
2022-10-16T07:09:12.715Z,8.73
2022-10-16T07:11:42.493Z,10.50
2022-10-16T07:14:16.786Z,10.68
2022-10-16T07:16:46.274Z,10.82
2022-10-16T07:19:19.078Z,9.32
2022-10-16T07:21:48.573Z,13.45
2022-10-16T07:24:19.318Z,15.48
2022-10-16T07:26:48.981Z,11.77
2022-10-16T07:29:19.802Z,9.93
2022-10-16T07:31:49.490Z,9.80
2022-10-16T07:34:22.610Z,13.15
2022-10-16T07:36:52.892Z,12.13
2022-10-16T07:39:22.420Z,9.40
2022-10-16T07:41:51.883Z,10.65
2022-10-16T07:44:21.370Z,10.20
2022-10-16T07:46:50.811Z,11.07
2022-10-16T07:49:22.832Z,9.05
2022-10-16T07:51:52.278Z,10.40
2022-10-16T07:54:21.747Z,10.27
2022-10-16T07:56:51.196Z,11.50
2022-10-16T07:59:20.664Z,12.27
2022-10-16T08:01:50.160Z,10.68
2022-10-16T08:04:22.308Z,11.35
2022-10-16T08:06:51.786Z,10.95
2022-10-16T08:09:21.254Z,11.98
2022-10-16T08:11:50.708Z,11.07
2022-10-16T08:14:20.168Z,10.55
2022-10-16T08:16:49.600Z,12.15
2022-10-16T08:19:19.284Z,11.18
2022-10-16T08:21:53.455Z,10.77
2022-10-16T08:24:23.380Z,11.95
2022-10-16T08:26:52.892Z,11.15
2022-10-16T08:29:22.397Z,11.45
2022-10-16T08:31:51.899Z,12.02
2022-10-16T08:34:21.366Z,15.18
2022-10-16T08:36:53.796Z,9.40
2022-10-16T08:39:23.234Z,8.70
2022-10-16T08:42:14.470Z,11.43
2022-10-16T08:47:21.957Z,14.15
2022-10-16T08:49:58.757Z,11.60
2022-10-16T08:52:33.129Z,12.05
2022-10-16T08:55:02.883Z,13.73
2022-10-16T08:57:33.667Z,15.10
2022-10-16T09:00:04.254Z,11.38
2022-10-16T09:02:35.471Z,10.77
2022-10-16T09:05:26.950Z,19.70
2022-10-16T09:08:06.674Z,12.55
2022-10-16T09:10:43.227Z,9.52
2022-10-16T09:13:18.485Z,10.70
2022-10-16T09:15:50.636Z,11.02
2022-10-16T09:18:23.129Z,12.05
2022-10-16T09:20:54.379Z,12.45
2022-10-16T09:23:28.842Z,13.13
2022-10-16T09:25:58.783Z,11.40
2022-10-16T09:28:28.279Z,10.10
2022-10-16T09:30:57.763Z,10.32
2022-10-16T09:33:28.924Z,11.38
2022-10-16T09:35:59.853Z,10.02
2022-10-16T09:38:33.558Z,8.52
2022-10-16T09:41:03.812Z,11.07
2022-10-16T09:43:37.528Z,9.07
2022-10-16T09:46:08.000Z,10.10
2022-10-16T09:48:40.845Z,13.48
2022-10-16T09:51:21.964Z,11.73
2022-10-16T09:56:27.487Z,9.45
2022-10-16T09:58:57.895Z,9.75
2022-10-16T10:01:30.384Z,10.15
2022-10-16T10:04:02.109Z,8.73
2022-10-16T10:06:32.860Z,9.88
2022-10-16T10:09:08.083Z,10.15
2022-10-16T10:11:56.912Z,11.18
2022-10-16T10:14:34.521Z,9.93
2022-10-16T10:17:15.211Z,10.88
2022-10-16T10:19:45.858Z,11.90
2022-10-16T10:22:32.736Z,9.10
2022-10-16T10:25:26.370Z,11.43
2022-10-16T10:28:09.677Z,10.00
2022-10-16T10:30:42.119Z,8.10
2022-10-16T10:33:19.063Z,11.65
2022-10-16T10:35:51.446Z,8.45
2022-10-16T10:38:27.933Z,8.02
2022-10-16T10:41:05.565Z,7.43
2022-10-16T10:43:44.116Z,7.20
2022-10-16T10:46:15.901Z,9.90
2022-10-16T10:48:54.640Z,6.93
2022-10-16T10:51:26.802Z,9.02
2022-10-16T10:53:59.259Z,8.00
2022-10-16T10:56:43.346Z,9.65
2022-10-16T11:00:01.841Z,9.25
2022-10-16T11:02:35.647Z,7.43
2022-10-16T11:05:34.930Z,7.65
2022-10-16T11:08:05.747Z,8.02
2022-10-16T11:10:38.724Z,7.85
2022-10-16T11:13:17.332Z,8.95
2022-10-16T11:15:46.832Z,7.18
2022-10-16T11:18:19.708Z,7.88
2022-10-16T11:20:51.060Z,7.68
2022-10-16T11:23:22.373Z,6.47
2022-10-16T11:25:51.990Z,6.95
2022-10-16T11:28:27.884Z,6.15
2022-10-16T11:31:02.905Z,5.80
2022-10-16T11:33:35.043Z,6.45
2022-10-16T11:36:07.799Z,4.93
2022-10-16T11:38:39.256Z,5.80
2022-10-16T11:41:13.931Z,4.45
2022-10-16T11:43:47.032Z,7.03
2022-10-16T11:46:18.995Z,3.88
2022-10-16T11:48:50.781Z,5.05
2022-10-16T11:51:23.578Z,5.28
2022-10-16T11:53:56.450Z,4.97
2022-10-16T11:56:26.006Z,6.38
2022-10-16T11:59:00.723Z,6.03
2022-10-16T12:01:33.697Z,5.45
2022-10-16T12:04:09.087Z,4.05
2022-10-16T12:06:39.307Z,4.38
2022-10-16T12:09:08.782Z,4.93
2022-10-16T12:11:40.435Z,5.20
2022-10-16T12:14:26.192Z,6.18
2022-10-16T12:16:57.435Z,3.72
2022-10-16T12:19:27.839Z,4.07
2022-10-16T12:21:59.927Z,5.43
2022-10-16T12:24:36.399Z,4.20
2022-10-16T12:27:06.151Z,4.22
2022-10-16T12:29:40.102Z,4.60
2022-10-16T12:32:13.083Z,5.85
2022-10-16T12:34:46.064Z,4.35
2022-10-16T12:37:18.156Z,3.47
2022-10-16T12:39:47.622Z,5.22
2022-10-16T12:42:34.446Z,4.57
2022-10-16T12:45:25.243Z,3.47
2022-10-16T12:47:55.857Z,4.93
2022-10-16T12:50:34.384Z,5.25
2022-10-16T12:53:04.314Z,4.55
2022-10-16T12:55:38.071Z,4.57
2022-10-16T12:58:13.325Z,8.13
2022-10-16T13:00:48.341Z,5.40
2022-10-16T13:03:56.213Z,5.82
2022-10-16T13:06:31.122Z,3.42
2022-10-16T13:09:16.572Z,6.35
2022-10-16T13:12:13.602Z,5.05
2022-10-16T13:15:21.181Z,3.83
2022-10-16T13:17:57.562Z,3.90
2022-10-16T13:20:31.392Z,3.92
2022-10-16T13:23:04.813Z,3.38
2022-10-16T13:25:39.544Z,3.63
2022-10-16T13:28:10.258Z,4.32
2022-10-16T13:30:42.347Z,3.92
2022-10-16T13:33:17.373Z,6.95
2022-10-16T13:35:52.458Z,5.65
2022-10-16T13:38:23.160Z,3.80
2022-10-16T13:40:54.234Z,4.28
2022-10-16T13:46:03.682Z,3.05
2022-10-16T13:48:36.147Z,3.28
2022-10-16T13:51:07.283Z,3.85
2022-10-16T13:53:37.518Z,5.28
2022-10-16T13:56:08.309Z,4.13
2022-10-16T13:58:37.738Z,5.00
2022-10-16T14:01:09.743Z,4.40
2022-10-16T14:03:41.787Z,4.35
2022-10-16T14:06:16.765Z,4.10
2022-10-16T14:08:47.076Z,4.88
2022-10-16T14:11:16.504Z,3.78
2022-10-16T14:13:47.727Z,4.40
2022-10-16T14:16:20.549Z,5.03
2022-10-16T14:18:56.208Z,4.03
2022-10-16T14:21:26.221Z,4.03
2022-10-16T14:23:56.600Z,4.00
2022-10-16T14:26:26.923Z,3.47
2022-10-16T14:29:07.586Z,3.42
2022-10-16T14:31:37.974Z,5.30
2022-10-16T14:34:34.779Z,3.88
2022-10-16T14:39:57.757Z,4.30
2022-10-16T14:42:28.259Z,3.90
2022-10-16T14:44:57.944Z,4.88
2022-10-16T14:47:28.989Z,3.42
2022-10-16T14:50:01.467Z,4.20
2022-10-16T14:52:30.937Z,3.63
2022-10-16T14:55:00.408Z,3.97
2022-10-16T14:57:31.332Z,3.88
2022-10-16T15:02:32.701Z,5.80
2022-10-16T15:05:11.287Z,7.03
2022-10-16T15:07:40.732Z,8.48
2022-10-16T15:10:10.634Z,7.70
2022-10-16T15:12:40.111Z,5.18
2022-10-16T15:15:22.959Z,6.97
2022-10-16T15:17:53.562Z,4.68
2022-10-16T15:20:25.740Z,5.47
2022-10-16T15:22:55.241Z,6.00
2022-10-16T15:25:33.290Z,4.03
2022-10-16T15:28:02.816Z,4.55
2022-10-16T15:30:32.319Z,4.10
2022-10-16T15:33:01.870Z,5.15
2022-10-16T15:35:33.919Z,5.47
2022-10-16T15:38:03.362Z,4.55
2022-10-16T15:40:33.129Z,8.00
2022-10-16T15:43:02.604Z,3.75
2022-10-16T15:45:32.046Z,4.28
2022-10-16T15:48:01.486Z,5.50
2022-10-16T15:50:33.787Z,4.13
2022-10-16T15:53:03.326Z,6.10
2022-10-16T15:55:32.778Z,4.80
2022-10-16T15:58:02.245Z,6.53
2022-10-16T16:00:31.697Z,4.57
2022-10-16T16:03:01.156Z,6.90
2022-10-16T16:05:34.365Z,6.80
2022-10-16T16:08:03.801Z,5.72
2022-10-16T16:10:33.292Z,6.05
2022-10-16T16:13:02.718Z,7.65
2022-10-16T16:15:32.175Z,7.43
2022-10-16T16:18:02.850Z,7.60
2022-10-16T16:20:34.920Z,7.10
2022-10-16T16:23:04.358Z,7.93
2022-10-16T16:25:33.829Z,8.57
2022-10-16T16:28:03.261Z,8.70
2022-10-16T16:30:32.833Z,8.73
2022-10-16T16:33:02.286Z,9.10
2022-10-16T16:35:34.349Z,8.23
2022-10-16T16:38:03.824Z,9.30
2022-10-16T16:40:33.277Z,8.70
2022-10-16T16:43:03.569Z,10.27
2022-10-16T16:45:33.054Z,7.30
2022-10-16T16:48:02.476Z,8.70
2022-10-16T16:50:35.819Z,6.55
2022-10-16T16:53:05.300Z,6.45
2022-10-16T16:55:34.772Z,6.18
2022-10-16T16:58:04.644Z,5.57
2022-10-16T17:00:34.470Z,10.05
2022-10-16T17:03:04.003Z,7.35
2022-10-16T17:05:36.072Z,7.45
2022-10-16T17:08:05.611Z,6.35
2022-10-16T17:10:35.050Z,5.82
2022-10-16T17:13:04.525Z,7.55
2022-10-16T17:15:34.192Z,8.30
2022-10-16T17:18:03.649Z,8.77
2022-10-16T17:20:36.918Z,7.03
2022-10-16T17:23:06.404Z,6.82
2022-10-16T17:25:35.925Z,6.65
2022-10-16T17:28:05.380Z,7.82
2022-10-16T17:30:35.658Z,7.60
2022-10-16T17:33:05.103Z,10.52
2022-10-16T17:35:42.152Z,11.13
2022-10-16T17:38:12.177Z,8.05
2022-10-16T17:40:42.337Z,8.30
2022-10-16T17:43:11.800Z,8.68
2022-10-16T17:45:41.419Z,8.30
2022-10-16T17:48:10.836Z,7.07
2022-10-16T17:50:45.534Z,8.93
2022-10-16T17:53:15.073Z,7.80
2022-10-16T17:55:44.524Z,7.78
2022-10-16T17:58:13.967Z,8.02
2022-10-16T18:00:43.428Z,8.43
2022-10-16T18:03:12.889Z,9.38
2022-10-16T18:05:44.940Z,9.25
2022-10-16T18:08:14.387Z,10.45
2022-10-16T18:10:48.598Z,8.23
2022-10-16T18:13:18.213Z,11.10
2022-10-16T18:15:47.914Z,9.00
2022-10-16T18:18:17.398Z,10.05
2022-10-16T18:20:58.676Z,9.00
2022-10-16T18:23:28.170Z,9.50
2022-10-16T18:25:58.026Z,11.80
2022-10-16T18:28:27.528Z,10.85
2022-10-16T18:31:00.218Z,9.00
2022-10-16T18:33:30.796Z,10.05
2022-10-16T18:36:03.397Z,10.05
2022-10-16T18:38:33.024Z,10.75
2022-10-16T18:41:05.524Z,9.40
2022-10-16T18:43:35.031Z,11.38
2022-10-16T18:46:05.144Z,11.23
2022-10-16T18:48:34.857Z,9.43
2022-10-16T18:51:14.811Z,10.57
2022-10-16T18:53:45.186Z,10.82
2022-10-16T18:56:15.078Z,12.55
2022-10-16T18:58:44.783Z,11.13
2022-10-16T19:01:16.686Z,9.75
2022-10-16T19:03:46.515Z,12.10
2022-10-16T19:06:18.907Z,10.52
2022-10-16T19:08:48.351Z,11.77
2022-10-16T19:11:18.669Z,13.00
2022-10-16T19:13:48.422Z,12.02
2022-10-16T19:16:20.670Z,10.35
2022-10-16T19:18:51.287Z,11.70
2022-10-16T19:21:24.328Z,12.38
2022-10-16T19:23:54.356Z,12.20
2022-10-16T19:26:23.922Z,11.00
2022-10-16T19:28:53.726Z,11.43
2022-10-16T19:31:24.679Z,13.13
2022-10-16T19:33:54.635Z,10.02
2022-10-16T19:36:27.741Z,10.30
2022-10-16T19:38:57.885Z,11.15
2022-10-16T19:41:27.528Z,9.77
2022-10-16T19:43:56.978Z,10.48
2022-10-16T19:46:27.353Z,10.63
2022-10-16T19:48:57.425Z,9.98
2022-10-16T19:51:29.642Z,9.63
2022-10-16T19:54:00.094Z,10.30
2022-10-16T19:56:30.414Z,9.95
2022-10-16T19:59:00.354Z,10.75
2022-10-16T20:01:32.086Z,11.02
2022-10-16T20:04:01.658Z,9.15
2022-10-16T20:06:34.118Z,9.85
2022-10-16T20:09:03.562Z,9.63
2022-10-16T20:11:33.780Z,10.90
2022-10-16T20:14:03.215Z,10.73
2022-10-16T20:16:33.106Z,11.18
2022-10-16T20:19:02.616Z,11.60
2022-10-16T20:21:35.448Z,12.45
2022-10-16T20:24:06.451Z,12.80
2022-10-16T20:29:05.668Z,13.82
2022-10-16T20:31:35.428Z,11.05
2022-10-16T20:34:05.918Z,13.60
2022-10-16T20:36:38.088Z,12.70
2022-10-16T20:39:07.802Z,11.43
2022-10-16T20:41:37.377Z,15.10
2022-10-16T20:44:07.194Z,13.43
2022-10-16T20:46:36.692Z,12.88
2022-10-16T20:49:10.978Z,16.67
2022-10-16T20:51:44.013Z,15.90
2022-10-16T20:54:13.464Z,14.65
2022-10-16T20:56:43.983Z,13.75
2022-10-16T20:59:13.816Z,13.05
2022-10-16T21:01:43.389Z,13.00
2022-10-16T21:04:13.022Z,13.48
2022-10-16T21:06:45.368Z,13.13
2022-10-16T21:09:14.848Z,14.13
2022-10-16T21:11:44.299Z,12.45
2022-10-16T21:14:13.771Z,14.45
2022-10-16T21:16:43.241Z,11.27
2022-10-16T21:19:12.684Z,12.55
2022-10-16T21:21:44.780Z,13.30
2022-10-16T21:24:16.635Z,11.13
2022-10-16T21:26:46.972Z,10.63
2022-10-16T21:29:16.464Z,12.55
2022-10-16T21:31:45.986Z,12.50
2022-10-16T21:34:15.450Z,14.00
2022-10-16T21:36:47.495Z,12.02
2022-10-16T21:39:17.552Z,11.68
2022-10-16T21:41:47.930Z,13.13
2022-10-16T21:44:17.457Z,14.10
2022-10-16T21:46:47.152Z,11.45
2022-10-16T21:49:17.427Z,11.55
2022-10-16T21:51:50.687Z,14.32
2022-10-16T21:54:21.707Z,11.73
2022-10-16T21:59:20.496Z,10.55
2022-10-16T22:01:50.074Z,11.75
2022-10-16T22:04:19.569Z,12.38
2022-10-16T22:06:51.603Z,12.93
2022-10-16T22:09:21.058Z,11.82
2022-10-16T22:11:51.026Z,11.70
2022-10-16T22:14:23.415Z,11.85
2022-10-16T22:16:52.919Z,11.63
2022-10-16T22:19:23.883Z,10.60
2022-10-16T22:24:26.902Z,17.88
2022-10-16T22:26:56.400Z,12.40
2022-10-16T22:29:25.960Z,10.82
2022-10-16T22:31:55.748Z,13.63
2022-10-16T22:34:25.264Z,11.02
2022-10-16T22:36:57.256Z,13.07
2022-10-16T22:39:28.200Z,10.93
2022-10-16T22:41:57.635Z,14.68
2022-10-16T22:44:28.804Z,11.38
2022-10-16T22:46:58.275Z,12.55
2022-10-16T22:49:27.820Z,12.77
2022-10-16T22:51:59.857Z,10.23
2022-10-16T22:54:29.329Z,12.88
2022-10-16T22:56:58.815Z,11.02
2022-10-16T22:59:28.359Z,10.45
2022-10-16T23:01:57.786Z,12.85
2022-10-16T23:04:27.231Z,11.70
2022-10-16T23:07:00.157Z,12.25
2022-10-16T23:09:29.604Z,10.40
2022-10-16T23:11:59.043Z,10.75
2022-10-16T23:14:28.543Z,12.38
2022-10-16T23:16:57.932Z,12.10
2022-10-16T23:19:27.465Z,11.40
2022-10-16T23:21:59.706Z,11.32
2022-10-16T23:24:29.207Z,12.07
2022-10-16T23:26:58.611Z,11.70
2022-10-16T23:29:28.064Z,13.77
2022-10-16T23:31:57.485Z,29.98
2022-10-16T23:34:27.015Z,14.10
2022-10-16T23:36:59.038Z,18.48
2022-10-16T23:39:28.635Z,31.98
2022-10-16T23:41:58.060Z,34.28
2022-10-16T23:44:27.577Z,25.48
2022-10-16T23:46:56.995Z,16.73
2022-10-16T23:49:26.597Z,28.65
2022-10-16T23:51:56.061Z,16.13
2022-10-16T23:54:28.195Z,23.13
2022-10-16T23:56:57.597Z,18.83
2022-10-16T23:59:27.070Z,22.20
